Time;durP1;ratioP1;P1;durP2;ratioP2;P2;SDS_P1;SDS_P2;PMS_P1;PMS_P2;Temp;Humidity;BMP_temperature;BMP_pressure;BME280_temperature;BME280_humidity;BME280_pressure;Samples;Min_cycle;Max_cycle;Signal;HPM_P1;HPM_P2
2022/12/06 00:01:08;;;;;;;;;;;;;;;10.73;nan;101721.88;5057432;28;19934;-33
2022/12/06 00:03:35;;;;;;;;;;;;;;;10.73;nan;101719.19;5055327;28;20177;-32
2022/12/06 00:06:07;;;;;;;;;;;;;;;10.73;nan;101720.00;5051782;28;19916;-33
2022/12/06 00:08:33;;;;;;;;;;;;;;;10.71;nan;101713.25;5052583;28;20252;-32
2022/12/06 00:11:14;;;;;;;;;;;;;;;10.71;nan;101715.91;5051516;28;19924;-32
2022/12/06 00:13:40;;;;;;;;;;;;;;;10.70;nan;101716.97;5055240;28;19924;-33
2022/12/06 00:16:07;;;;;;;;;;;;;;;10.70;nan;101714.28;5057120;28;19927;-33
2022/12/06 00:18:33;;;;;;;;;;;;;;;10.71;nan;101713.25;5052725;28;20156;-33
2022/12/06 00:21:05;;;;;;;;;;;;;;;10.74;nan;101710.09;5057874;28;20387;-33
2022/12/06 00:23:31;;;;;;;;;;;;;;;10.75;nan;101701.84;5053915;28;19920;-33
2022/12/06 00:25:59;;;;;;;;;;;;;;;10.77;nan;101702.47;5054164;28;19924;-33
2022/12/06 00:28:24;;;;;;;;;;;;;;;10.77;nan;101706.97;5055524;28;20383;-32
2022/12/06 00:30:49;;;;;;;;;;;;;;;10.73;nan;101700.44;5052543;28;19923;-33
2022/12/06 00:33:15;;;;;;;;;;;;;;;10.73;nan;101708.47;5053267;28;20015;-32
2022/12/06 00:35:40;;;;;;;;;;;;;;;10.72;nan;101706.84;5054736;28;20065;-32
2022/12/06 00:38:05;;;;;;;;;;;;;;;10.73;nan;101701.25;5054416;28;19917;-32
2022/12/06 00:40:30;;;;;;;;;;;;;;;10.75;nan;101701.84;5056095;28;19931;-33
2022/12/06 00:42:56;;;;;;;;;;;;;;;10.76;nan;101703.47;5058544;28;20154;-33
2022/12/06 00:45:21;;;;;;;;;;;;;;;10.77;nan;101699.78;5056797;28;19999;-32
2022/12/06 00:47:46;;;;;;;;;;;;;;;10.79;nan;101712.94;5050486;28;20008;-32
2022/12/06 00:50:12;;;;;;;;;;;;;;;10.78;nan;101708.63;5051476;28;19929;-33
2022/12/06 00:52:37;;;;;;;;;;;;;;;10.81;nan;101721.59;5052959;28;19935;-32
2022/12/06 00:55:02;;;;;;;;;;;;;;;10.81;nan;101713.53;5050773;28;19925;-33
2022/12/06 00:57:28;;;;;;;;;;;;;;;10.81;nan;101710.84;5051683;28;19925;-32
2022/12/06 00:59:53;;;;;;;;;;;;;;;10.82;nan;101713.31;5050589;28;19920;-33
2022/12/06 01:02:19;;;;;;;;;;;;;;;10.84;nan;101699.69;5052654;28;19923;-33
2022/12/06 01:04:44;;;;;;;;;;;;;;;10.83;nan;101708.78;5055659;28;19917;-33
2022/12/06 01:07:09;;;;;;;;;;;;;;;10.84;nan;101702.34;5057274;28;19916;-33
2022/12/06 01:09:35;;;;;;;;;;;;;;;10.87;nan;101701.91;5057290;28;19925;-33
2022/12/06 01:12:00;;;;;;;;;;;;;;;10.88;nan;101700.84;5055210;28;20007;-33
2022/12/06 01:14:25;;;;;;;;;;;;;;;10.90;nan;101704.13;5056944;28;19923;-33
2022/12/06 01:16:51;;;;;;;;;;;;;;;10.92;nan;101693.16;5053791;28;20148;-33
2022/12/06 01:19:16;;;;;;;;;;;;;;;10.93;nan;101695.63;5053710;28;20367;-33
2022/12/06 01:21:42;;;;;;;;;;;;;;;10.93;nan;101690.25;5056497;28;20254;-33
2022/12/06 01:24:07;;;;;;;;;;;;;;;10.97;nan;101688.78;5054728;28;19920;-33
2022/12/06 01:26:33;;;;;;;;;;;;;;;10.98;nan;101684.25;5059328;28;19916;-33
2022/12/06 01:28:59;;;;;;;;;;;;;;;10.96;nan;101689.81;5056283;28;19924;-33
2022/12/06 01:31:25;;;;;;;;;;;;;;;10.97;nan;101685.28;5055023;28;19916;-33
2022/12/06 01:33:50;;;;;;;;;;;;;;;10.99;nan;101680.50;5055201;28;19970;-32
2022/12/06 01:36:22;;;;;;;;;;;;;;;11.01;nan;101673.06;5058401;28;20291;-32
2022/12/06 01:38:51;;;;;;;;;;;;;;;11.02;nan;101674.69;5058543;28;19971;-32
2022/12/06 01:41:18;;;;;;;;;;;;;;;11.03;nan;101674.44;5057131;28;19921;-33
2022/12/06 01:43:43;;;;;;;;;;;;;;;11.06;nan;101675.84;5056634;28;20458;-33
2022/12/06 01:46:25;;;;;;;;;;;;;;;11.08;nan;101668.41;5056062;28;19916;-32
2022/12/06 01:48:52;;;;;;;;;;;;;;;11.10;nan;101672.47;5058504;28;20315;-33
2022/12/06 01:51:17;;;;;;;;;;;;;;;11.11;nan;101674.13;5056944;28;20372;-33
2022/12/06 01:53:45;;;;;;;;;;;;;;;11.13;nan;101671.19;5056130;28;20013;-33
2022/12/06 01:56:10;;;;;;;;;;;;;;;11.15;nan;101669.13;5053898;28;19917;-33
2022/12/06 01:58:39;;;;;;;;;;;;;;;11.15;nan;101669.13;5055926;28;19931;-32
2022/12/06 02:01:05;;;;;;;;;;;;;;;11.13;nan;101666.69;5053647;28;19977;-33
2022/12/06 02:03:32;;;;;;;;;;;;;;;11.13;nan;101668.53;5055530;28;20430;-32
2022/12/06 02:05:58;;;;;;;;;;;;;;;11.12;nan;101665.03;5053708;28;19921;-33
2022/12/06 02:08:25;;;;;;;;;;;;;;;11.13;nan;101666.69;5055058;28;20368;-33
2022/12/06 02:10:50;;;;;;;;;;;;;;;11.15;nan;101666.47;5055384;28;19917;-32
2022/12/06 02:13:16;;;;;;;;;;;;;;;11.17;nan;101664.34;5055516;28;20067;-33
2022/12/06 02:15:57;;;;;;;;;;;;;;;11.17;nan;101651.75;5052615;28;19920;-33
2022/12/06 02:18:42;;;;;;;;;;;;;;;11.19;nan;101646.16;5051843;28;20432;-33
2022/12/06 02:21:26;;;;;;;;;;;;;;;11.20;nan;101647.78;5015763;28;20383;-33
2022/12/06 02:24:10;;;;;;;;;;;;;;;11.19;nan;101649.66;5056315;28;19940;-33
2022/12/06 02:26:39;;;;;;;;;;;;;;;11.21;nan;101652.13;5055571;28;19968;-33
2022/12/06 02:29:24;;;;;;;;;;;;;;;11.23;nan;101649.19;5051879;28;19917;-32
2022/12/06 02:31:57;;;;;;;;;;;;;;;11.25;nan;101639.88;5052273;28;20308;-33
2022/12/06 02:34:26;;;;;;;;;;;;;;;11.23;nan;101633.09;5054030;28;20011;-33
2022/12/06 02:37:00;;;;;;;;;;;;;;;11.23;nan;101635.78;5052536;28;19923;-33
2022/12/06 02:39:26;;;;;;;;;;;;;;;11.22;nan;101637.66;5053435;28;20149;-33
2022/12/06 02:41:59;;;;;;;;;;;;;;;11.23;nan;101631.22;5054750;28;20031;-33
2022/12/06 02:44:27;;;;;;;;;;;;;;;11.26;nan;101638.00;5052424;28;19917;-33
2022/12/06 02:46:55;;;;;;;;;;;;;;;11.25;nan;101631.00;5054359;28;19927;-33
2022/12/06 02:49:22;;;;;;;;;;;;;;;11.27;nan;101631.59;5054928;28;20007;-33
2022/12/06 02:51:48;;;;;;;;;;;;;;;11.28;nan;101627.84;5058485;28;19927;-33
2022/12/06 02:54:15;;;;;;;;;;;;;;;11.25;nan;101626.44;5053492;28;19921;-33
2022/12/06 02:56:40;;;;;;;;;;;;;;;11.24;nan;101629.38;5053224;28;19924;-33
2022/12/06 02:59:06;;;;;;;;;;;;;;;11.24;nan;101619.47;5054719;28;20042;-33
2022/12/06 03:01:33;;;;;;;;;;;;;;;11.25;nan;101621.09;5054128;28;20019;-33
2022/12/06 03:04:04;;;;;;;;;;;;;;;11.23;nan;101620.50;5052597;28;20291;-33
2022/12/06 03:06:59;;;;;;;;;;;;;;;11.24;nan;101618.63;5053208;28;19927;-33
2022/12/06 03:09:46;;;;;;;;;;;;;;;11.20;nan;101624.47;4990732;28;19938;-33
2022/12/06 03:12:12;;;;;;;;;;;;;;;11.15;nan;101620.84;5055727;28;21395;-32
2022/12/06 03:14:54;;;;;;;;;;;;;;;11.12;nan;101621.28;5055988;28;19921;-33
2022/12/06 03:17:28;;;;;;;;;;;;;;;11.10;nan;101618.84;5057906;28;19920;-33
2022/12/06 03:19:59;;;;;;;;;;;;;;;11.09;nan;101608.34;5051758;28;19966;-33
2022/12/06 03:22:28;;;;;;;;;;;;;;;11.10;nan;101613.47;5057867;28;20011;-33
2022/12/06 03:24:54;;;;;;;;;;;;;;;11.08;nan;101612.06;5059808;28;20055;-33
2022/12/06 03:27:21;;;;;;;;;;;;;;;11.07;nan;101611.25;5052763;28;20010;-33
2022/12/06 03:29:50;;;;;;;;;;;;;;;11.07;nan;101615.81;5051725;28;20366;-33
2022/12/06 03:32:18;;;;;;;;;;;;;;;11.08;nan;101607.53;5053918;28;19924;-34
2022/12/06 03:34:46;;;;;;;;;;;;;;;11.10;nan;101608.13;5057215;28;19924;-33
2022/12/06 03:37:14;;;;;;;;;;;;;;;11.12;nan;101605.19;5054471;28;19917;-33
2022/12/06 03:39:43;;;;;;;;;;;;;;;11.11;nan;101607.06;5055141;28;19927;-33
2022/12/06 03:42:08;;;;;;;;;;;;;;;11.11;nan;101600.88;5057122;28;20011;-33
2022/12/06 03:44:34;;;;;;;;;;;;;;;11.13;nan;101601.47;5051879;28;20390;-33
2022/12/06 03:47:02;;;;;;;;;;;;;;;11.14;nan;101601.25;5054285;28;19970;-33
2022/12/06 03:49:48;;;;;;;;;;;;;;;11.15;nan;101597.53;5052699;28;19939;-32
2022/12/06 03:52:13;;;;;;;;;;;;;;;11.13;nan;101594.28;5050760;28;19944;-33
2022/12/06 03:54:40;;;;;;;;;;;;;;;11.14;nan;101587.84;5051492;28;19955;-33
2022/12/06 03:57:05;;;;;;;;;;;;;;;11.14;nan;101592.41;5052276;28;19917;-33
2022/12/06 03:59:31;;;;;;;;;;;;;;;11.13;nan;101591.59;5056314;28;19928;-33
2022/12/06 04:01:56;;;;;;;;;;;;;;;11.13;nan;101590.75;5053827;28;20124;-33
2022/12/06 04:04:23;;;;;;;;;;;;;;;11.11;nan;101585.59;5052976;28;19921;-33
2022/12/06 04:06:49;;;;;;;;;;;;;;;11.10;nan;101585.84;5055640;28;19952;-33
2022/12/06 04:14:59;;;;;;;;;;;;;;;11.07;nan;101581.75;5053640;28;19962;-33
2022/12/06 04:20:08;;;;;;;;;;;;;;;11.08;nan;101571.84;5055488;28;20019;-33
2022/12/06 04:25:17;;;;;;;;;;;;;;;11.06;nan;101571.25;5053977;28;20308;-34
2022/12/06 04:38:41;;;;;;;;;;;;;;;11.05;nan;101557.03;5054853;28;19958;-33
2022/12/06 04:41:07;;;;;;;;;;;;;;;11.06;nan;101550.63;5054775;28;19956;-33
2022/12/06 04:43:41;;;;;;;;;;;;;;;11.02;nan;101552.16;5058555;28;19966;-34
2022/12/06 04:46:11;;;;;;;;;;;;;;;10.97;nan;101541.31;5055678;28;20017;-33
2022/12/06 04:48:36;;;;;;;;;;;;;;;10.94;nan;101544.44;5057939;28;19917;-33
2022/12/06 04:51:02;;;;;;;;;;;;;;;10.92;nan;101535.78;5062041;28;19916;-33
2022/12/06 04:53:27;;;;;;;;;;;;;;;10.94;nan;101538.25;5056275;28;20390;-33
2022/12/06 04:55:52;;;;;;;;;;;;;;;10.90;nan;101535.22;5058214;28;19925;-33
2022/12/06 04:58:18;;;;;;;;;;;;;;;10.90;nan;101532.53;5057463;28;20304;-33
2022/12/06 05:00:43;;;;;;;;;;;;;;;10.92;nan;101534.97;5059292;28;19924;-33
2022/12/06 05:03:10;;;;;;;;;;;;;;;10.97;nan;101532.44;5056983;28;19956;-33
2022/12/06 05:05:35;;;;;;;;;;;;;;;11.00;nan;101534.66;5059126;28;19964;-33
2022/12/06 05:08:00;;;;;;;;;;;;;;;11.03;nan;101536.88;5062487;28;19960;-33
2022/12/06 05:10:26;;;;;;;;;;;;;;;11.06;nan;101536.41;5055632;28;19970;-34
2022/12/06 05:12:51;;;;;;;;;;;;;;;11.07;nan;101538.84;5056785;28;19936;-32
2022/12/06 05:15:16;;;;;;;;;;;;;;;11.10;nan;101541.06;5055905;28;19931;-34
2022/12/06 05:17:42;;;;;;;;;;;;;;;11.12;nan;101530.91;5059116;28;20188;-32
2022/12/06 05:20:07;;;;;;;;;;;;;;;11.12;nan;101528.22;5060860;28;19920;-33
2022/12/06 05:22:32;;;;;;;;;;;;;;;11.13;nan;101526.38;5060811;28;19920;-34
2022/12/06 05:24:58;;;;;;;;;;;;;;;11.13;nan;101526.38;5060900;28;19921;-33
2022/12/06 05:27:23;;;;;;;;;;;;;;;11.12;nan;101527.41;5058363;28;19916;-33
2022/12/06 05:29:48;;;;;;;;;;;;;;;11.11;nan;101523.91;5055937;28;19927;-33
2022/12/06 05:32:14;;;;;;;;;;;;;;;11.12;nan;101525.56;5054399;28;19920;-33
2022/12/06 05:34:39;;;;;;;;;;;;;;;11.11;nan;101523.91;5054744;28;19920;-33
2022/12/06 05:37:04;;;;;;;;;;;;;;;11.12;nan;101533.59;5056567;28;19917;-33
2022/12/06 05:39:30;;;;;;;;;;;;;;;11.12;nan;101525.56;5054570;28;19917;-33
2022/12/06 05:41:55;;;;;;;;;;;;;;;11.12;nan;101530.91;5057503;28;19943;-33
2022/12/06 05:44:20;;;;;;;;;;;;;;;11.15;nan;101535.03;5054092;28;19916;-33
2022/12/06 05:46:46;;;;;;;;;;;;;;;11.15;nan;101533.16;5056597;28;19924;-33
2022/12/06 05:49:11;;;;;;;;;;;;;;;11.16;nan;101529.44;5055613;28;19925;-33
2022/12/06 05:51:36;;;;;;;;;;;;;;;11.17;nan;101531.06;5053810;28;19924;-33
2022/12/06 05:54:04;;;;;;;;;;;;;;;11.17;nan;101517.66;5053419;28;19923;-33
2022/12/06 05:56:30;;;;;;;;;;;;;;;11.18;nan;101518.47;5056117;28;20000;-33
2022/12/06 05:58:55;;;;;;;;;;;;;;;11.17;nan;101525.69;5054391;28;20036;-32
2022/12/06 06:01:20;;;;;;;;;;;;;;;11.16;nan;101525.94;5058355;28;19928;-33
2022/12/06 06:03:45;;;;;;;;;;;;;;;11.16;nan;101521.38;5055323;28;19925;-33
2022/12/06 06:06:11;;;;;;;;;;;;;;;11.15;nan;101522.44;5055761;28;19924;-33
2022/12/06 06:08:36;;;;;;;;;;;;;;;11.16;nan;101525.94;5054895;28;19920;-33
2022/12/06 06:11:02;;;;;;;;;;;;;;;11.13;nan;101516.50;5058372;28;20402;-33
2022/12/06 06:13:27;;;;;;;;;;;;;;;11.13;nan;101521.00;5058496;28;19931;-33
2022/12/06 06:15:52;;;;;;;;;;;;;;;11.12;nan;101517.50;5054326;28;19932;-33
2022/12/06 06:18:18;;;;;;;;;;;;;;;11.10;nan;101511.56;5054464;28;19966;-33
2022/12/06 06:20:50;;;;;;;;;;;;;;;11.09;nan;101512.63;5053820;28;19935;-33
2022/12/06 06:23:16;;;;;;;;;;;;;;;11.07;nan;101517.41;5057229;28;19921;-33
2022/12/06 06:25:41;;;;;;;;;;;;;;;11.07;nan;101517.41;5054873;28;20033;-33
2022/12/06 06:28:08;;;;;;;;;;;;;;;11.07;nan;101520.06;5054527;28;19921;-33
2022/12/06 06:30:33;;;;;;;;;;;;;;;11.06;nan;101526.50;5056868;28;19925;-33
2022/12/06 06:32:58;;;;;;;;;;;;;;;11.05;nan;101522.19;5057863;28;19947;-33
2022/12/06 06:35:24;;;;;;;;;;;;;;;11.05;nan;101526.72;5057932;28;19917;-33
2022/12/06 06:37:49;;;;;;;;;;;;;;;11.05;nan;101524.03;5056677;28;19917;-33
2022/12/06 06:40:15;;;;;;;;;;;;;;;11.05;nan;101530.22;5054873;28;20423;-32
2022/12/06 06:42:40;;;;;;;;;;;;;;;11.05;nan;101524.03;5058769;28;19931;-34
2022/12/06 06:45:06;;;;;;;;;;;;;;;11.03;nan;101526.16;5057794;28;19929;-33
2022/12/06 06:47:32;;;;;;;;;;;;;;;11.02;nan;101535.25;5058349;28;19923;-33
2022/12/06 06:49:57;;;;;;;;;;;;;;;11.01;nan;101534.44;5053612;28;19974;-33
2022/12/06 06:52:22;;;;;;;;;;;;;;;10.99;nan;101531.16;5057229;28;19981;-33
2022/12/06 06:54:48;;;;;;;;;;;;;;;10.98;nan;101534.06;5057923;28;20438;-33
2022/12/06 06:57:13;;;;;;;;;;;;;;;10.98;nan;101534.91;5062276;28;19928;-33
2022/12/06 06:59:38;;;;;;;;;;;;;;;10.97;nan;101538.63;5057174;28;19967;-33
2022/12/06 07:02:04;;;;;;;;;;;;;;;10.94;nan;101530.19;5057488;28;20102;-33
2022/12/06 07:04:29;;;;;;;;;;;;;;;10.91;nan;101534.16;5059694;28;19986;-33
2022/12/06 07:06:54;;;;;;;;;;;;;;;10.91;nan;101536.84;5057815;28;19989;-33
2022/12/06 07:09:20;;;;;;;;;;;;;;;10.92;nan;101537.66;5061025;28;19917;-33
2022/12/06 07:11:45;;;;;;;;;;;;;;;10.90;nan;101528.00;5059757;28;19924;-32
2022/12/06 07:14:10;;;;;;;;;;;;;;;10.92;nan;101529.63;5058189;28;19923;-33
2022/12/06 07:16:36;;;;;;;;;;;;;;;10.92;nan;101538.47;5060259;28;19926;-33
2022/12/06 07:19:01;;;;;;;;;;;;;;;10.94;nan;101538.25;5054261;28;20015;-33
2022/12/06 07:21:27;;;;;;;;;;;;;;;10.96;nan;101542.34;5054771;28;20183;-33
2022/12/06 07:23:52;;;;;;;;;;;;;;;10.96;nan;101542.34;5055409;28;19924;-33
2022/12/06 07:26:19;;;;;;;;;;;;;;;10.93;nan;101532.06;5053962;28;19923;-33
2022/12/06 07:28:46;;;;;;;;;;;;;;;10.93;nan;101532.06;5052398;28;20011;-33
2022/12/06 07:31:19;;;;;;;;;;;;;;;10.90;nan;101538.72;5051848;28;19923;-33
2022/12/06 07:33:44;;;;;;;;;;;;;;;10.86;nan;101539.41;5053753;28;20561;-33
2022/12/06 07:36:11;;;;;;;;;;;;;;;10.85;nan;101535.91;5052880;28;20007;-33
2022/12/06 07:38:36;;;;;;;;;;;;;;;10.80;nan;101543.84;5052476;28;19917;-33
2022/12/06 07:44:59;;;;;;;;;;;;;;;10.79;nan;101542.22;5054889;28;19927;-33
2022/12/06 07:46:39;;;;;;;;;;;;;;;10.80;nan;101545.69;5051562;28;19926;-32
2022/12/06 07:49:05;;;;;;;;;;;;;;;10.79;nan;101542.22;5052158;28;19916;-32
2022/12/06 07:51:30;;;;;;;;;;;;;;;10.78;nan;101547.81;5052902;28;20007;-32
2022/12/06 07:53:56;;;;;;;;;;;;;;;10.78;nan;101542.44;5055282;28;20369;-32
2022/12/06 07:56:21;;;;;;;;;;;;;;;10.78;nan;101545.13;5053100;28;19924;-32
2022/12/06 07:58:47;;;;;;;;;;;;;;;10.82;nan;101547.09;5053346;28;20388;-32
2022/12/06 08:01:12;;;;;;;;;;;;;;;10.80;nan;101549.19;5051901;28;19994;-32
2022/12/06 08:03:37;;;;;;;;;;;;;;;10.82;nan;101540.94;5053401;28;19924;-32
2022/12/06 08:06:03;;;;;;;;;;;;;;;10.74;nan;101543.91;5052707;28;19956;-32
2022/12/06 08:08:29;;;;;;;;;;;;;;;10.70;nan;101542.75;5050051;28;19916;-32
2022/12/06 08:10:58;;;;;;;;;;;;;;;10.69;nan;101535.75;5053083;28;20041;-32
2022/12/06 08:13:23;;;;;;;;;;;;;;;10.71;nan;101539.03;5054425;28;19916;-32
2022/12/06 08:15:48;;;;;;;;;;;;;;;10.67;nan;101521.78;5053190;28;19926;-32
2022/12/06 08:18:14;;;;;;;;;;;;;;;10.65;nan;101530.06;5053342;28;19928;-32
2022/12/06 08:20:39;;;;;;;;;;;;;;;10.62;nan;101535.88;5051954;28;20391;-31
2022/12/06 08:23:04;;;;;;;;;;;;;;;10.62;nan;101527.00;5051011;28;19923;-32
2022/12/06 08:25:30;;;;;;;;;;;;;;;10.58;nan;101532.81;5052296;28;19917;-31
2022/12/06 08:27:56;;;;;;;;;;;;;;;10.56;nan;101526.88;5050600;28;19940;-31
2022/12/06 08:30:21;;;;;;;;;;;;;;;10.55;nan;101538.63;5052810;28;20063;-32
2022/12/06 08:32:46;;;;;;;;;;;;;;;10.54;nan;101528.97;5051308;28;19924;-32
2022/12/06 08:35:12;;;;;;;;;;;;;;;10.57;nan;101530.34;5053683;28;20006;-32
2022/12/06 08:37:37;;;;;;;;;;;;;;;10.54;nan;101542.34;5051189;28;19975;-31
2022/12/06 08:40:03;;;;;;;;;;;;;;;10.52;nan;101533.72;5055857;28;20401;-32
2022/12/06 08:42:28;;;;;;;;;;;;;;;10.51;nan;101532.09;5054214;28;19916;-32
2022/12/06 08:44:53;;;;;;;;;;;;;;;10.55;nan;101538.63;5050586;28;21394;-32
2022/12/06 08:47:19;;;;;;;;;;;;;;;10.52;nan;101536.41;5052679;28;19967;-31
2022/12/06 08:49:44;;;;;;;;;;;;;;;10.47;nan;101530.94;5052638;28;19921;-31
2022/12/06 08:52:10;;;;;;;;;;;;;;;10.45;nan;101530.34;5052432;28;19916;-32
2022/12/06 08:54:36;;;;;;;;;;;;;;;10.42;nan;101538.03;5054588;28;20375;-32
2022/12/06 08:57:02;;;;;;;;;;;;;;;10.39;nan;101531.22;5051809;28;19917;-32
2022/12/06 08:59:27;;;;;;;;;;;;;;;10.40;nan;101535.53;5052937;28;20127;-32
2022/12/06 09:01:53;;;;;;;;;;;;;;;10.38;nan;101529.59;5050925;28;20211;-32
2022/12/06 09:04:18;;;;;;;;;;;;;;;10.33;nan;101523.31;5054345;28;19931;-32
2022/12/06 09:06:44;;;;;;;;;;;;;;;10.27;nan;101533.06;5052521;28;19916;-31
2022/12/06 09:09:10;;;;;;;;;;;;;;;10.21;nan;101528.59;5051260;28;19927;-32
2022/12/06 09:11:36;;;;;;;;;;;;;;;10.16;nan;101531.94;5052905;28;19917;-32
2022/12/06 09:14:01;;;;;;;;;;;;;;;10.17;nan;101528.22;5051858;28;19916;-32
2022/12/06 09:16:27;;;;;;;;;;;;;;;10.14;nan;101536.69;5051362;28;20364;-31
2022/12/06 09:18:52;;;;;;;;;;;;;;;10.19;nan;101530.66;5050648;28;19916;-31
2022/12/06 09:21:20;;;;;;;;;;;;;;;10.17;nan;101530.88;5052187;28;19920;-32
2022/12/06 09:23:45;;;;;;;;;;;;;;;10.22;nan;101536.41;5052715;28;19921;-31
2022/12/06 09:26:11;;;;;;;;;;;;;;;10.23;nan;101529.19;5052985;28;19917;-32
2022/12/06 09:28:38;;;;;;;;;;;;;;;10.20;nan;101533.09;5055103;28;19917;-31
2022/12/06 09:31:04;;;;;;;;;;;;;;;10.20;nan;101526.94;5056838;28;20323;-32
2022/12/06 09:33:30;;;;;;;;;;;;;;;10.19;nan;101531.47;5053742;28;19917;-32
2022/12/06 09:35:55;;;;;;;;;;;;;;;10.20;nan;101524.25;5054165;28;20006;-31
2022/12/06 09:38:23;;;;;;;;;;;;;;;10.22;nan;101524.88;5055100;28;19970;-31
2022/12/06 09:41:23;;;;;;;;;;;;;;;10.25;nan;101519.09;5055151;28;19925;-32
2022/12/06 09:43:48;;;;;;;;;;;;;;;10.27;nan;101522.34;4975153;28;19922;-31
2022/12/06 09:46:25;;;;;;;;;;;;;;;10.29;nan;101507.69;5037331;28;19920;-31
2022/12/06 09:48:58;;;;;;;;;;;;;;;10.29;nan;101504.19;5055705;28;19916;-32
2022/12/06 09:51:32;;;;;;;;;;;;;;;10.36;nan;101509.44;5057187;28;19920;-31
2022/12/06 09:54:01;;;;;;;;;;;;;;;10.33;nan;101500.00;5054312;28;19968;-32
2022/12/06 09:56:35;;;;;;;;;;;;;;;10.31;nan;101496.75;5055981;28;19970;-31
2022/12/06 09:59:06;;;;;;;;;;;;;;;10.32;nan;101493.03;5056617;28;19923;-31
2022/12/06 10:01:57;;;;;;;;;;;;;;;10.30;nan;101489.75;5055286;28;20007;-31
2022/12/06 10:04:45;;;;;;;;;;;;;;;10.27;nan;101479.50;5054930;28;20303;-32
2022/12/06 10:07:14;;;;;;;;;;;;;;;10.27;nan;101485.69;5055958;28;20445;-32
2022/12/06 10:09:54;;;;;;;;;;;;;;;10.22;nan;101482.84;5053895;28;20091;-32
2022/12/06 10:12:40;;;;;;;;;;;;;;;10.23;nan;101489.00;5054377;28;19923;-31
2022/12/06 10:15:25;;;;;;;;;;;;;;;10.23;nan;101487.19;5053004;28;19994;-31
2022/12/06 10:18:03;;;;;;;;;;;;;;;10.29;nan;101477.41;5053984;28;20338;-32
2022/12/06 10:20:43;;;;;;;;;;;;;;;10.27;nan;101480.31;5055018;28;19921;-32
2022/12/06 10:23:26;;;;;;;;;;;;;;;10.26;nan;101473.31;5056080;28;20136;-31
2022/12/06 10:26:12;;;;;;;;;;;;;;;10.28;nan;101475.78;5056322;28;20297;-32
2022/12/06 10:29:10;;;;;;;;;;;;;;;10.32;nan;101476.94;5053469;28;19916;-31
2022/12/06 10:31:51;;;;;;;;;;;;;;;10.38;nan;101481.38;5017277;28;19917;-32
2022/12/06 10:34:21;;;;;;;;;;;;;;;10.43;nan;101478.03;5066167;22;19932;-35
2022/12/06 10:36:49;;;;;;;;;;;;;;;10.44;nan;101469.78;5040337;28;19929;-35
2022/12/06 10:39:24;;;;;;;;;;;;;;;10.46;nan;101473.03;5040781;28;20258;-35
2022/12/06 10:41:49;;;;;;;;;;;;;;;10.49;nan;101467.22;5039765;28;20417;-34
2022/12/06 10:44:21;;;;;;;;;;;;;;;10.53;nan;101460.34;5040847;28;19925;-34
2022/12/06 10:47:05;;;;;;;;;;;;;;;10.56;nan;101462.56;5040853;28;19921;-36
2022/12/06 10:49:42;;;;;;;;;;;;;;;10.58;nan;101463.13;5040793;28;20011;-36
2022/12/06 10:52:26;;;;;;;;;;;;;;;10.62;nan;101460.84;5041612;28;19964;-35
2022/12/06 10:54:52;;;;;;;;;;;;;;;10.65;nan;101454.19;5041841;28;19921;-35
2022/12/06 10:57:24;;;;;;;;;;;;;;;10.67;nan;101460.13;5041802;28;19920;-35
2022/12/06 11:00:12;;;;;;;;;;;;;;;10.73;nan;101456.53;5041024;28;19943;-35
2022/12/06 11:02:40;;;;;;;;;;;;;;;10.73;nan;101451.97;5039396;28;20383;-35
2022/12/06 11:05:38;;;;;;;;;;;;;;;10.72;nan;101455.69;5041486;28;20404;-35
2022/12/06 11:08:05;;;;;;;;;;;;;;;10.73;nan;101454.66;5017246;28;19931;-35
2022/12/06 11:10:33;;;;;;;;;;;;;;;10.75;nan;101449.06;5042412;28;19923;-35
2022/12/06 11:13:24;;;;;;;;;;;;;;;10.72;nan;101444.97;5040596;28;19923;-35
2022/12/06 11:16:13;;;;;;;;;;;;;;;10.69;nan;101450.81;5034421;28;19932;-37
2022/12/06 11:18:38;;;;;;;;;;;;;;;10.67;nan;101436.00;5031020;28;19916;-35
2022/12/06 11:21:17;;;;;;;;;;;;;;;10.68;nan;101437.66;5043367;28;19929;-35
2022/12/06 11:23:56;;;;;;;;;;;;;;;10.71;nan;101439.84;5043541;28;20346;-35
2022/12/06 11:26:22;;;;;;;;;;;;;;;10.72;nan;101439.63;5041956;28;19920;-35
2022/12/06 11:28:54;;;;;;;;;;;;;;;10.77;nan;101430.88;5043795;28;19917;-35
2022/12/06 11:31:19;;;;;;;;;;;;;;;10.77;nan;101426.38;5045153;28;19921;-36
2022/12/06 11:33:45;;;;;;;;;;;;;;;10.80;nan;101433.13;5043594;28;19924;-38
2022/12/06 11:36:11;;;;;;;;;;;;;;;10.81;nan;101429.38;5043115;28;20319;-35
2022/12/06 11:38:38;;;;;;;;;;;;;;;10.81;nan;101434.75;5043022;28;19920;-35
2022/12/06 11:41:06;;;;;;;;;;;;;;;10.80;nan;101430.44;5043216;28;19932;-36
2022/12/06 11:43:34;;;;;;;;;;;;;;;10.81;nan;101429.38;5044598;28;20066;-35
2022/12/06 11:46:01;;;;;;;;;;;;;;;10.79;nan;101428.81;5043089;28;19917;-36
2022/12/06 11:48:30;;;;;;;;;;;;;;;10.80;nan;101425.06;5043439;28;19919;-35
2022/12/06 11:50:55;;;;;;;;;;;;;;;10.80;nan;101417.03;5041274;28;19925;-37
2022/12/06 11:53:41;;;;;;;;;;;;;;;10.80;nan;101420.53;5043344;28;19924;-35
2022/12/06 11:56:22;;;;;;;;;;;;;;;10.78;nan;101411.09;5039739;28;19940;-35
2022/12/06 11:58:48;;;;;;;;;;;;;;;10.79;nan;101410.03;5035563;28;19990;-36
2022/12/06 12:01:13;;;;;;;;;;;;;;;10.84;nan;101410.97;5036979;28;20536;-35
2022/12/06 12:03:40;;;;;;;;;;;;;;;10.86;nan;101408.06;5036381;28;19917;-36
2022/12/06 12:06:15;;;;;;;;;;;;;;;10.77;nan;101404.91;5033504;28;19921;-35
2022/12/06 12:08:49;;;;;;;;;;;;;;;10.71;nan;101405.84;5034097;28;20380;-36
2022/12/06 12:11:19;;;;;;;;;;;;;;;10.73;nan;101401.06;5033709;28;19929;-35
2022/12/06 12:13:49;;;;;;;;;;;;;;;10.70;nan;101398.84;5032676;28;19944;-37
2022/12/06 12:16:21;;;;;;;;;;;;;;;10.70;nan;101392.66;5034585;28;19924;-36
2022/12/06 12:19:06;;;;;;;;;;;;;;;10.67;nan;101398.50;5031346;28;19928;-38
2022/12/06 12:21:39;;;;;;;;;;;;;;;10.67;nan;101398.50;5034290;28;20002;-38
2022/12/06 12:24:05;;;;;;;;;;;;;;;10.69;nan;101396.41;5037793;28;19968;-37
2022/12/06 12:26:35;;;;;;;;;;;;;;;10.69;nan;101397.22;5031548;28;19921;-37
2022/12/06 12:29:03;;;;;;;;;;;;;;;10.72;nan;101403.97;5038956;28;20371;-36
2022/12/06 12:31:28;;;;;;;;;;;;;;;10.72;nan;101403.97;5035267;28;19971;-36
2022/12/06 12:34:29;;;;;;;;;;;;;;;10.71;nan;101394.28;5035004;28;19921;-36
2022/12/06 12:36:57;;;;;;;;;;;;;;;10.65;nan;101398.72;4988842;28;19922;-36
2022/12/06 12:39:25;;;;;;;;;;;;;;;10.66;nan;101402.22;5030486;28;19970;-36
2022/12/06 12:41:50;;;;;;;;;;;;;;;10.67;nan;101387.78;5037580;28;20080;-35
2022/12/06 12:44:21;;;;;;;;;;;;;;;10.68;nan;101397.44;5035596;28;19920;-35
2022/12/06 12:46:57;;;;;;;;;;;;;;;10.69;nan;101391.03;5036107;28;20312;-36
2022/12/06 12:49:25;;;;;;;;;;;;;;;10.69;nan;101391.03;5037712;28;19921;-36
2022/12/06 12:51:51;;;;;;;;;;;;;;;10.71;nan;101394.28;5037147;28;21134;-36
2022/12/06 12:54:31;;;;;;;;;;;;;;;10.74;nan;101385.78;5034623;28;20314;-35
2022/12/06 12:56:57;;;;;;;;;;;;;;;10.75;nan;101385.53;5029051;28;20269;-35
2022/12/06 12:59:25;;;;;;;;;;;;;;;10.72;nan;101380.66;5034471;28;20168;-36
2022/12/06 13:01:56;;;;;;;;;;;;;;;10.74;nan;101377.75;5038571;28;19929;-35
2022/12/06 13:04:28;;;;;;;;;;;;;;;10.71;nan;101373.66;5041983;28;19937;-36
2022/12/06 13:06:59;;;;;;;;;;;;;;;10.71;nan;101370.19;5038836;28;20374;-35
2022/12/06 13:09:31;;;;;;;;;;;;;;;10.65;nan;101379.16;5043089;28;19943;-38
2022/12/06 13:12:00;;;;;;;;;;;;;;;10.63;nan;101371.34;5036407;28;19924;-35
2022/12/06 13:14:26;;;;;;;;;;;;;;;10.67;nan;101377.88;5036858;28;20423;-38
2022/12/06 13:16:55;;;;;;;;;;;;;;;10.70;nan;101381.94;5034128;28;20024;-35
2022/12/06 13:19:24;;;;;;;;;;;;;;;10.72;nan;101380.66;5038028;28;19979;-35
2022/12/06 13:21:49;;;;;;;;;;;;;;;10.75;nan;101371.34;5035990;28;20069;-35
2022/12/06 13:24:22;;;;;;;;;;;;;;;10.75;nan;101372.16;5038625;28;19974;-35
2022/12/06 13:26:53;;;;;;;;;;;;;;;10.77;nan;101375.44;5035241;28;19920;-36
2022/12/06 13:29:39;;;;;;;;;;;;;;;10.78;nan;101374.38;5039958;28;20403;-37
2022/12/06 13:32:12;;;;;;;;;;;;;;;10.80;nan;101369.59;5037028;28;19921;-35